sensor_id;sensor_type;location;lat;lon;timestamp;P1;durP1;ratioP1;P2;durP2;ratioP2
54935;SDS011;40838;50.676;7.838;2023-06-22T00:01:17;14.00;;;11.77;;
54935;SDS011;40838;50.676;7.838;2023-06-22T00:03:44;15.30;;;12.43;;
54935;SDS011;40838;50.676;7.838;2023-06-22T00:06:11;17.05;;;12.55;;
54935;SDS011;40838;50.676;7.838;2023-06-22T00:08:38;14.52;;;13.07;;
54935;SDS011;40838;50.676;7.838;2023-06-22T00:11:06;16.10;;;12.65;;
54935;SDS011;40838;50.676;7.838;2023-06-22T00:13:34;15.18;;;12.90;;
54935;SDS011;40838;50.676;7.838;2023-06-22T00:16:01;16.35;;;13.00;;
54935;SDS011;40838;50.676;7.838;2023-06-22T00:18:28;18.55;;;13.32;;
54935;SDS011;40838;50.676;7.838;2023-06-22T00:20:55;18.90;;;15.05;;
54935;SDS011;40838;50.676;7.838;2023-06-22T00:23:26;18.48;;;14.00;;
54935;SDS011;40838;50.676;7.838;2023-06-22T00:25:53;16.42;;;14.40;;
54935;SDS011;40838;50.676;7.838;2023-06-22T00:28:21;20.38;;;14.07;;
54935;SDS011;40838;50.676;7.838;2023-06-22T00:30:48;15.90;;;12.95;;
54935;SDS011;40838;50.676;7.838;2023-06-22T00:33:15;19.02;;;14.00;;
54935;SDS011;40838;50.676;7.838;2023-06-22T00:35:42;17.17;;;15.27;;
54935;SDS011;40838;50.676;7.838;2023-06-22T00:38:09;18.23;;;13.13;;
54935;SDS011;40838;50.676;7.838;2023-06-22T00:40:35;23.20;;;13.68;;
54935;SDS011;40838;50.676;7.838;2023-06-22T00:43:02;14.88;;;13.27;;
54935;SDS011;40838;50.676;7.838;2023-06-22T00:45:31;17.90;;;14.70;;
54935;SDS011;40838;50.676;7.838;2023-06-22T00:48:05;17.27;;;13.70;;
54935;SDS011;40838;50.676;7.838;2023-06-22T00:50:37;16.48;;;13.63;;
54935;SDS011;40838;50.676;7.838;2023-06-22T00:53:07;19.27;;;14.57;;
54935;SDS011;40838;50.676;7.838;2023-06-22T00:55:37;18.85;;;15.20;;
54935;SDS011;40838;50.676;7.838;2023-06-22T00:58:07;18.25;;;13.65;;
54935;SDS011;40838;50.676;7.838;2023-06-22T01:00:37;16.40;;;14.32;;
54935;SDS011;40838;50.676;7.838;2023-06-22T01:03:04;18.08;;;14.63;;
54935;SDS011;40838;50.676;7.838;2023-06-22T01:05:34;33.78;;;14.48;;
54935;SDS011;40838;50.676;7.838;2023-06-22T01:08:05;19.05;;;15.45;;
54935;SDS011;40838;50.676;7.838;2023-06-22T01:10:40;22.02;;;14.88;;
54935;SDS011;40838;50.676;7.838;2023-06-22T01:13:14;24.38;;;17.75;;
54935;SDS011;40838;50.676;7.838;2023-06-22T01:15:53;19.02;;;16.25;;
54935;SDS011;40838;50.676;7.838;2023-06-22T01:18:26;20.60;;;16.48;;
54935;SDS011;40838;50.676;7.838;2023-06-22T01:20:57;18.58;;;16.65;;
54935;SDS011;40838;50.676;7.838;2023-06-22T01:23:27;17.55;;;14.95;;
54935;SDS011;40838;50.676;7.838;2023-06-22T01:26:02;20.88;;;14.55;;
54935;SDS011;40838;50.676;7.838;2023-06-22T01:28:41;17.23;;;13.73;;
54935;SDS011;40838;50.676;7.838;2023-06-22T01:31:12;16.25;;;14.20;;
54935;SDS011;40838;50.676;7.838;2023-06-22T01:33:41;20.00;;;13.52;;
54935;SDS011;40838;50.676;7.838;2023-06-22T01:36:12;16.05;;;13.32;;
54935;SDS011;40838;50.676;7.838;2023-06-22T01:38:40;20.75;;;14.90;;
54935;SDS011;40838;50.676;7.838;2023-06-22T01:41:10;22.17;;;14.35;;
54935;SDS011;40838;50.676;7.838;2023-06-22T01:43:38;15.93;;;14.35;;
54935;SDS011;40838;50.676;7.838;2023-06-22T01:46:06;16.52;;;13.68;;
54935;SDS011;40838;50.676;7.838;2023-06-22T01:48:34;15.00;;;13.52;;
54935;SDS011;40838;50.676;7.838;2023-06-22T01:51:02;19.05;;;13.68;;
54935;SDS011;40838;50.676;7.838;2023-06-22T01:53:29;17.77;;;14.43;;
54935;SDS011;40838;50.676;7.838;2023-06-22T01:55:56;13.98;;;12.45;;
54935;SDS011;40838;50.676;7.838;2023-06-22T01:58:25;19.60;;;14.40;;
54935;SDS011;40838;50.676;7.838;2023-06-22T02:00:58;15.45;;;12.85;;
54935;SDS011;40838;50.676;7.838;2023-06-22T02:03:34;18.02;;;14.55;;
54935;SDS011;40838;50.676;7.838;2023-06-22T02:06:05;19.70;;;15.20;;
54935;SDS011;40838;50.676;7.838;2023-06-22T02:08:36;17.52;;;15.10;;
54935;SDS011;40838;50.676;7.838;2023-06-22T02:11:07;22.73;;;14.80;;
54935;SDS011;40838;50.676;7.838;2023-06-22T02:13:36;21.50;;;15.93;;
54935;SDS011;40838;50.676;7.838;2023-06-22T02:16:08;22.67;;;16.13;;
54935;SDS011;40838;50.676;7.838;2023-06-22T02:18:37;17.30;;;15.07;;
54935;SDS011;40838;50.676;7.838;2023-06-22T02:21:06;20.27;;;14.57;;
54935;SDS011;40838;50.676;7.838;2023-06-22T02:23:33;22.25;;;15.80;;
54935;SDS011;40838;50.676;7.838;2023-06-22T02:26:01;17.58;;;14.35;;
54935;SDS011;40838;50.676;7.838;2023-06-22T02:28:30;19.67;;;14.88;;
54935;SDS011;40838;50.676;7.838;2023-06-22T02:30:57;17.92;;;14.88;;
54935;SDS011;40838;50.676;7.838;2023-06-22T02:33:24;15.90;;;14.02;;
54935;SDS011;40838;50.676;7.838;2023-06-22T02:35:54;18.35;;;15.13;;
54935;SDS011;40838;50.676;7.838;2023-06-22T02:38:21;18.35;;;14.13;;
54935;SDS011;40838;50.676;7.838;2023-06-22T02:40:51;17.35;;;14.15;;
54935;SDS011;40838;50.676;7.838;2023-06-22T02:43:17;22.98;;;15.15;;
54935;SDS011;40838;50.676;7.838;2023-06-22T02:45:44;20.33;;;15.93;;
54935;SDS011;40838;50.676;7.838;2023-06-22T02:48:11;16.02;;;14.43;;
54935;SDS011;40838;50.676;7.838;2023-06-22T02:50:39;19.75;;;14.43;;
54935;SDS011;40838;50.676;7.838;2023-06-22T02:53:07;18.88;;;14.52;;
54935;SDS011;40838;50.676;7.838;2023-06-22T02:55:37;16.20;;;14.60;;
54935;SDS011;40838;50.676;7.838;2023-06-22T02:58:05;18.88;;;14.18;;
54935;SDS011;40838;50.676;7.838;2023-06-22T03:00:35;17.17;;;14.10;;
54935;SDS011;40838;50.676;7.838;2023-06-22T03:03:02;17.33;;;14.90;;
54935;SDS011;40838;50.676;7.838;2023-06-22T03:05:29;16.50;;;14.82;;
54935;SDS011;40838;50.676;7.838;2023-06-22T03:07:58;17.83;;;14.50;;
54935;SDS011;40838;50.676;7.838;2023-06-22T03:10:27;17.58;;;15.75;;
54935;SDS011;40838;50.676;7.838;2023-06-22T03:12:54;22.67;;;16.92;;
54935;SDS011;40838;50.676;7.838;2023-06-22T03:15:21;21.80;;;18.92;;
54935;SDS011;40838;50.676;7.838;2023-06-22T03:17:49;19.58;;;17.50;;
54935;SDS011;40838;50.676;7.838;2023-06-22T03:20:16;25.27;;;21.38;;
54935;SDS011;40838;50.676;7.838;2023-06-22T03:22:45;24.45;;;20.48;;
54935;SDS011;40838;50.676;7.838;2023-06-22T03:25:14;24.98;;;20.52;;
54935;SDS011;40838;50.676;7.838;2023-06-22T03:27:45;22.73;;;19.90;;
54935;SDS011;40838;50.676;7.838;2023-06-22T03:30:13;23.25;;;20.83;;
54935;SDS011;40838;50.676;7.838;2023-06-22T03:32:40;25.95;;;18.98;;
54935;SDS011;40838;50.676;7.838;2023-06-22T03:35:09;25.88;;;20.60;;
54935;SDS011;40838;50.676;7.838;2023-06-22T03:37:39;24.52;;;20.42;;
54935;SDS011;40838;50.676;7.838;2023-06-22T03:40:06;29.35;;;21.90;;
54935;SDS011;40838;50.676;7.838;2023-06-22T03:42:34;30.13;;;20.63;;
54935;SDS011;40838;50.676;7.838;2023-06-22T03:45:03;24.70;;;19.02;;
54935;SDS011;40838;50.676;7.838;2023-06-22T03:47:31;22.73;;;18.75;;
54935;SDS011;40838;50.676;7.838;2023-06-22T03:49:58;23.52;;;18.52;;
54935;SDS011;40838;50.676;7.838;2023-06-22T03:52:25;21.40;;;18.40;;
54935;SDS011;40838;50.676;7.838;2023-06-22T03:54:52;19.27;;;17.15;;
54935;SDS011;40838;50.676;7.838;2023-06-22T03:57:19;19.00;;;16.92;;
54935;SDS011;40838;50.676;7.838;2023-06-22T03:59:46;19.45;;;16.65;;
54935;SDS011;40838;50.676;7.838;2023-06-22T04:02:14;19.92;;;16.77;;
54935;SDS011;40838;50.676;7.838;2023-06-22T04:04:41;17.10;;;14.88;;
54935;SDS011;40838;50.676;7.838;2023-06-22T04:07:08;21.58;;;15.63;;
54935;SDS011;40838;50.676;7.838;2023-06-22T04:09:35;16.02;;;14.45;;
54935;SDS011;40838;50.676;7.838;2023-06-22T04:12:02;17.42;;;14.93;;
54935;SDS011;40838;50.676;7.838;2023-06-22T04:14:29;16.50;;;14.60;;
54935;SDS011;40838;50.676;7.838;2023-06-22T04:16:55;15.60;;;13.98;;
54935;SDS011;40838;50.676;7.838;2023-06-22T04:19:23;15.90;;;13.73;;
54935;SDS011;40838;50.676;7.838;2023-06-22T04:21:59;14.18;;;12.43;;
54935;SDS011;40838;50.676;7.838;2023-06-22T04:24:26;15.25;;;13.73;;
54935;SDS011;40838;50.676;7.838;2023-06-22T04:26:53;17.63;;;13.27;;
54935;SDS011;40838;50.676;7.838;2023-06-22T04:29:20;15.32;;;12.15;;
54935;SDS011;40838;50.676;7.838;2023-06-22T04:31:55;17.90;;;13.30;;
54935;SDS011;40838;50.676;7.838;2023-06-22T04:34:26;18.80;;;12.65;;
54935;SDS011;40838;50.676;7.838;2023-06-22T04:36:53;14.45;;;12.02;;
54935;SDS011;40838;50.676;7.838;2023-06-22T04:39:20;14.82;;;13.02;;
54935;SDS011;40838;50.676;7.838;2023-06-22T04:41:48;14.00;;;11.38;;
54935;SDS011;40838;50.676;7.838;2023-06-22T04:44:17;15.20;;;11.35;;
54935;SDS011;40838;50.676;7.838;2023-06-22T04:46:49;16.95;;;11.43;;
54935;SDS011;40838;50.676;7.838;2023-06-22T04:49:19;12.18;;;10.88;;
54935;SDS011;40838;50.676;7.838;2023-06-22T04:51:48;15.05;;;11.80;;
54935;SDS011;40838;50.676;7.838;2023-06-22T04:54:17;14.07;;;11.20;;
54935;SDS011;40838;50.676;7.838;2023-06-22T04:56:43;13.27;;;10.95;;
54935;SDS011;40838;50.676;7.838;2023-06-22T04:59:11;13.27;;;10.70;;
54935;SDS011;40838;50.676;7.838;2023-06-22T05:01:40;14.20;;;10.68;;
54935;SDS011;40838;50.676;7.838;2023-06-22T05:04:07;12.20;;;10.35;;
54935;SDS011;40838;50.676;7.838;2023-06-22T05:06:34;14.05;;;10.60;;
54935;SDS011;40838;50.676;7.838;2023-06-22T05:09:02;10.73;;;9.40;;
54935;SDS011;40838;50.676;7.838;2023-06-22T05:11:30;12.95;;;10.60;;
54935;SDS011;40838;50.676;7.838;2023-06-22T05:14:00;12.10;;;10.00;;
54935;SDS011;40838;50.676;7.838;2023-06-22T05:16:27;12.07;;;10.38;;
54935;SDS011;40838;50.676;7.838;2023-06-22T05:18:54;11.80;;;10.27;;
54935;SDS011;40838;50.676;7.838;2023-06-22T05:21:21;11.05;;;9.95;;
54935;SDS011;40838;50.676;7.838;2023-06-22T05:23:49;13.63;;;10.10;;
54935;SDS011;40838;50.676;7.838;2023-06-22T05:26:18;11.77;;;9.48;;
54935;SDS011;40838;50.676;7.838;2023-06-22T05:28:45;11.13;;;9.35;;
54935;SDS011;40838;50.676;7.838;2023-06-22T05:31:13;10.40;;;8.95;;
54935;SDS011;40838;50.676;7.838;2023-06-22T05:33:40;9.38;;;7.88;;
54935;SDS011;40838;50.676;7.838;2023-06-22T05:36:08;11.88;;;8.45;;
54935;SDS011;40838;50.676;7.838;2023-06-22T05:38:35;14.60;;;8.32;;
54935;SDS011;40838;50.676;7.838;2023-06-22T05:41:04;11.75;;;8.35;;
54935;SDS011;40838;50.676;7.838;2023-06-22T05:43:32;11.40;;;7.93;;
54935;SDS011;40838;50.676;7.838;2023-06-22T05:46:00;9.32;;;7.03;;
54935;SDS011;40838;50.676;7.838;2023-06-22T05:48:28;10.23;;;8.02;;
54935;SDS011;40838;50.676;7.838;2023-06-22T05:50:54;7.88;;;7.07;;
54935;SDS011;40838;50.676;7.838;2023-06-22T05:53:21;7.93;;;7.15;;
54935;SDS011;40838;50.676;7.838;2023-06-22T05:55:48;7.80;;;7.00;;
54935;SDS011;40838;50.676;7.838;2023-06-22T05:58:15;8.50;;;6.68;;
54935;SDS011;40838;50.676;7.838;2023-06-22T06:00:44;8.30;;;6.78;;
54935;SDS011;40838;50.676;7.838;2023-06-22T06:03:13;7.68;;;6.88;;
54935;SDS011;40838;50.676;7.838;2023-06-22T06:05:42;9.68;;;6.47;;
54935;SDS011;40838;50.676;7.838;2023-06-22T06:08:09;6.82;;;6.13;;
54935;SDS011;40838;50.676;7.838;2023-06-22T06:10:37;9.18;;;6.32;;
54935;SDS011;40838;50.676;7.838;2023-06-22T06:13:04;8.52;;;6.32;;
54935;SDS011;40838;50.676;7.838;2023-06-22T06:15:31;6.97;;;6.28;;
54935;SDS011;40838;50.676;7.838;2023-06-22T06:17:59;9.60;;;6.72;;
54935;SDS011;40838;50.676;7.838;2023-06-22T06:20:28;6.95;;;5.88;;
54935;SDS011;40838;50.676;7.838;2023-06-22T06:22:55;7.03;;;6.32;;
54935;SDS011;40838;50.676;7.838;2023-06-22T06:25:22;6.95;;;5.70;;
54935;SDS011;40838;50.676;7.838;2023-06-22T06:27:49;9.23;;;6.50;;
54935;SDS011;40838;50.676;7.838;2023-06-22T06:30:19;7.30;;;6.13;;
54935;SDS011;40838;50.676;7.838;2023-06-22T06:32:47;9.70;;;6.47;;
54935;SDS011;40838;50.676;7.838;2023-06-22T06:35:15;7.65;;;6.70;;
54935;SDS011;40838;50.676;7.838;2023-06-22T06:37:43;7.50;;;6.40;;
54935;SDS011;40838;50.676;7.838;2023-06-22T06:40:13;8.32;;;6.40;;
54935;SDS011;40838;50.676;7.838;2023-06-22T06:42:44;10.93;;;6.57;;
54935;SDS011;40838;50.676;7.838;2023-06-22T06:45:12;8.95;;;6.97;;
54935;SDS011;40838;50.676;7.838;2023-06-22T06:47:41;7.57;;;6.78;;
54935;SDS011;40838;50.676;7.838;2023-06-22T06:50:09;7.55;;;6.63;;
54935;SDS011;40838;50.676;7.838;2023-06-22T06:52:37;7.53;;;6.47;;
54935;SDS011;40838;50.676;7.838;2023-06-22T06:55:07;8.40;;;6.20;;
54935;SDS011;40838;50.676;7.838;2023-06-22T06:57:37;7.13;;;6.50;;
54935;SDS011;40838;50.676;7.838;2023-06-22T07:00:04;8.35;;;6.95;;
54935;SDS011;40838;50.676;7.838;2023-06-22T07:02:37;8.35;;;6.55;;
54935;SDS011;40838;50.676;7.838;2023-06-22T07:05:04;7.10;;;6.45;;
54935;SDS011;40838;50.676;7.838;2023-06-22T07:07:31;11.57;;;6.93;;
54935;SDS011;40838;50.676;7.838;2023-06-22T07:10:00;8.88;;;6.70;;
54935;SDS011;40838;50.676;7.838;2023-06-22T07:12:27;7.20;;;6.50;;
54935;SDS011;40838;50.676;7.838;2023-06-22T07:14:53;10.05;;;6.75;;
54935;SDS011;40838;50.676;7.838;2023-06-22T07:17:29;8.88;;;6.80;;
54935;SDS011;40838;50.676;7.838;2023-06-22T07:19:56;7.10;;;6.35;;
54935;SDS011;40838;50.676;7.838;2023-06-22T07:22:23;7.00;;;6.35;;
54935;SDS011;40838;50.676;7.838;2023-06-22T07:24:49;8.05;;;7.13;;
54935;SDS011;40838;50.676;7.838;2023-06-22T07:27:18;6.80;;;6.13;;
54935;SDS011;40838;50.676;7.838;2023-06-22T07:29:45;7.75;;;6.43;;
54935;SDS011;40838;50.676;7.838;2023-06-22T07:32:11;8.43;;;6.32;;
54935;SDS011;40838;50.676;7.838;2023-06-22T07:34:38;7.43;;;6.65;;
54935;SDS011;40838;50.676;7.838;2023-06-22T07:37:06;6.97;;;6.28;;
54935;SDS011;40838;50.676;7.838;2023-06-22T07:39:33;10.45;;;6.35;;
54935;SDS011;40838;50.676;7.838;2023-06-22T07:42:00;6.65;;;6.03;;
54935;SDS011;40838;50.676;7.838;2023-06-22T07:44:28;6.93;;;6.22;;
54935;SDS011;40838;50.676;7.838;2023-06-22T07:46:55;7.35;;;6.13;;
54935;SDS011;40838;50.676;7.838;2023-06-22T07:49:22;8.73;;;6.10;;
54935;SDS011;40838;50.676;7.838;2023-06-22T07:51:52;6.55;;;5.85;;
54935;SDS011;40838;50.676;7.838;2023-06-22T07:54:19;6.93;;;6.22;;
54935;SDS011;40838;50.676;7.838;2023-06-22T07:56:51;10.18;;;6.50;;
54935;SDS011;40838;50.676;7.838;2023-06-22T07:59:20;8.18;;;5.90;;
54935;SDS011;40838;50.676;7.838;2023-06-22T08:01:48;6.70;;;6.00;;
54935;SDS011;40838;50.676;7.838;2023-06-22T08:04:15;6.85;;;6.15;;
54935;SDS011;40838;50.676;7.838;2023-06-22T08:06:42;8.00;;;6.00;;
54935;SDS011;40838;50.676;7.838;2023-06-22T08:09:10;7.85;;;6.60;;
54935;SDS011;40838;50.676;7.838;2023-06-22T08:11:37;6.80;;;6.10;;
54935;SDS011;40838;50.676;7.838;2023-06-22T08:14:04;7.53;;;6.15;;
54935;SDS011;40838;50.676;7.838;2023-06-22T08:16:31;8.02;;;6.53;;
54935;SDS011;40838;50.676;7.838;2023-06-22T08:19:01;8.10;;;6.03;;
54935;SDS011;40838;50.676;7.838;2023-06-22T08:21:29;7.30;;;6.10;;
54935;SDS011;40838;50.676;7.838;2023-06-22T08:23:56;9.60;;;6.53;;
54935;SDS011;40838;50.676;7.838;2023-06-22T08:26:23;6.93;;;6.30;;
54935;SDS011;40838;50.676;7.838;2023-06-22T08:28:50;8.10;;;6.40;;
54935;SDS011;40838;50.676;7.838;2023-06-22T08:31:17;7.25;;;6.32;;
54935;SDS011;40838;50.676;7.838;2023-06-22T08:33:44;6.68;;;6.03;;
54935;SDS011;40838;50.676;7.838;2023-06-22T08:36:13;7.13;;;6.53;;
54935;SDS011;40838;50.676;7.838;2023-06-22T08:38:40;6.95;;;6.28;;
54935;SDS011;40838;50.676;7.838;2023-06-22T08:41:07;7.18;;;6.47;;
54935;SDS011;40838;50.676;7.838;2023-06-22T08:43:33;7.18;;;6.47;;
54935;SDS011;40838;50.676;7.838;2023-06-22T08:46:00;7.45;;;6.28;;
54935;SDS011;40838;50.676;7.838;2023-06-22T08:48:27;8.32;;;6.38;;
54935;SDS011;40838;50.676;7.838;2023-06-22T08:50:54;7.50;;;6.38;;
54935;SDS011;40838;50.676;7.838;2023-06-22T08:53:23;8.02;;;6.13;;
54935;SDS011;40838;50.676;7.838;2023-06-22T08:55:49;13.05;;;6.55;;
54935;SDS011;40838;50.676;7.838;2023-06-22T08:58:18;7.20;;;6.50;;
54935;SDS011;40838;50.676;7.838;2023-06-22T09:00:46;7.28;;;6.57;;
54935;SDS011;40838;50.676;7.838;2023-06-22T09:03:13;8.98;;;6.75;;
54935;SDS011;40838;50.676;7.838;2023-06-22T09:05:41;10.25;;;6.28;;
54935;SDS011;40838;50.676;7.838;2023-06-22T09:08:07;7.75;;;7.00;;
54935;SDS011;40838;50.676;7.838;2023-06-22T09:10:36;8.52;;;6.32;;
54935;SDS011;40838;50.676;7.838;2023-06-22T09:13:02;12.95;;;6.97;;
54935;SDS011;40838;50.676;7.838;2023-06-22T09:15:29;10.95;;;6.90;;
54935;SDS011;40838;50.676;7.838;2023-06-22T09:17:56;8.13;;;6.70;;
54935;SDS011;40838;50.676;7.838;2023-06-22T09:20:23;7.68;;;6.70;;
54935;SDS011;40838;50.676;7.838;2023-06-22T09:22:50;10.18;;;6.90;;
54935;SDS011;40838;50.676;7.838;2023-06-22T09:25:17;9.07;;;6.68;;
54935;SDS011;40838;50.676;7.838;2023-06-22T09:27:47;7.93;;;6.88;;
54935;SDS011;40838;50.676;7.838;2023-06-22T09:30:14;8.88;;;6.53;;
54935;SDS011;40838;50.676;7.838;2023-06-22T09:32:41;12.88;;;6.85;;
54935;SDS011;40838;50.676;7.838;2023-06-22T09:35:09;9.18;;;6.90;;
54935;SDS011;40838;50.676;7.838;2023-06-22T09:37:38;7.82;;;6.72;;
54935;SDS011;40838;50.676;7.838;2023-06-22T09:40:05;6.53;;;5.95;;
54935;SDS011;40838;50.676;7.838;2023-06-22T09:42:36;9.38;;;6.22;;
54935;SDS011;40838;50.676;7.838;2023-06-22T09:45:05;7.63;;;6.80;;
54935;SDS011;40838;50.676;7.838;2023-06-22T09:47:32;9.30;;;6.63;;
54935;SDS011;40838;50.676;7.838;2023-06-22T09:49:59;8.73;;;6.18;;
54935;SDS011;40838;50.676;7.838;2023-06-22T09:52:26;7.88;;;6.60;;
54935;SDS011;40838;50.676;7.838;2023-06-22T09:54:53;8.10;;;6.10;;
54935;SDS011;40838;50.676;7.838;2023-06-22T09:57:20;8.57;;;6.28;;
54935;SDS011;40838;50.676;7.838;2023-06-22T09:59:47;7.78;;;6.57;;
54935;SDS011;40838;50.676;7.838;2023-06-22T10:02:15;8.20;;;6.10;;
54935;SDS011;40838;50.676;7.838;2023-06-22T10:04:44;6.50;;;5.88;;
54935;SDS011;40838;50.676;7.838;2023-06-22T10:07:11;7.22;;;6.10;;
54935;SDS011;40838;50.676;7.838;2023-06-22T10:09:38;8.80;;;6.30;;
54935;SDS011;40838;50.676;7.838;2023-06-22T10:12:05;9.00;;;6.60;;
54935;SDS011;40838;50.676;7.838;2023-06-22T10:14:33;7.95;;;6.07;;
54935;SDS011;40838;50.676;7.838;2023-06-22T10:16:59;8.50;;;6.43;;
54935;SDS011;40838;50.676;7.838;2023-06-22T10:19:28;8.40;;;5.65;;
54935;SDS011;40838;50.676;7.838;2023-06-22T10:21:55;7.35;;;5.88;;
54935;SDS011;40838;50.676;7.838;2023-06-22T10:24:22;6.97;;;6.13;;
54935;SDS011;40838;50.676;7.838;2023-06-22T10:26:51;11.68;;;6.22;;
54935;SDS011;40838;50.676;7.838;2023-06-22T10:29:18;7.57;;;6.30;;
54935;SDS011;40838;50.676;7.838;2023-06-22T10:31:44;6.75;;;5.25;;
54935;SDS011;40838;50.676;7.838;2023-06-22T10:34:11;6.65;;;5.60;;
54935;SDS011;40838;50.676;7.838;2023-06-22T10:36:41;9.80;;;6.45;;
54935;SDS011;40838;50.676;7.838;2023-06-22T10:39:08;6.07;;;5.47;;
54935;SDS011;40838;50.676;7.838;2023-06-22T10:41:34;7.50;;;5.47;;
54935;SDS011;40838;50.676;7.838;2023-06-22T10:44:01;7.68;;;6.22;;
54935;SDS011;40838;50.676;7.838;2023-06-22T10:46:28;9.82;;;6.25;;
54935;SDS011;40838;50.676;7.838;2023-06-22T10:49:01;9.18;;;6.20;;
54935;SDS011;40838;50.676;7.838;2023-06-22T10:51:27;7.75;;;6.28;;
54935;SDS011;40838;50.676;7.838;2023-06-22T10:53:58;8.82;;;6.55;;
54935;SDS011;40838;50.676;7.838;2023-06-22T10:56:29;7.55;;;6.40;;
54935;SDS011;40838;50.676;7.838;2023-06-22T10:58:56;13.02;;;7.15;;
54935;SDS011;40838;50.676;7.838;2023-06-22T11:01:24;7.93;;;6.30;;
54935;SDS011;40838;50.676;7.838;2023-06-22T11:03:51;9.68;;;6.57;;
54935;SDS011;40838;50.676;7.838;2023-06-22T11:06:18;12.38;;;6.88;;
54935;SDS011;40838;50.676;7.838;2023-06-22T11:09:03;8.82;;;7.63;;
54935;SDS011;40838;50.676;7.838;2023-06-22T11:11:30;10.80;;;7.43;;
54935;SDS011;40838;50.676;7.838;2023-06-22T11:13:57;9.07;;;7.53;;
54935;SDS011;40838;50.676;7.838;2023-06-22T11:16:23;8.85;;;7.30;;
54935;SDS011;40838;50.676;7.838;2023-06-22T11:18:50;13.25;;;7.32;;
54935;SDS011;40838;50.676;7.838;2023-06-22T11:21:17;10.85;;;6.95;;
54935;SDS011;40838;50.676;7.838;2023-06-22T11:23:44;10.05;;;7.40;;
54935;SDS011;40838;50.676;7.838;2023-06-22T11:26:13;8.20;;;7.32;;
54935;SDS011;40838;50.676;7.838;2023-06-22T11:28:41;10.80;;;7.43;;
54935;SDS011;40838;50.676;7.838;2023-06-22T11:31:08;12.00;;;7.50;;
54935;SDS011;40838;50.676;7.838;2023-06-22T11:33:37;8.40;;;7.50;;
54935;SDS011;40838;50.676;7.838;2023-06-22T11:36:06;7.88;;;6.82;;
54935;SDS011;40838;50.676;7.838;2023-06-22T11:38:38;9.60;;;7.80;;
54935;SDS011;40838;50.676;7.838;2023-06-22T11:41:07;10.45;;;8.48;;
54935;SDS011;40838;50.676;7.838;2023-06-22T11:43:36;9.32;;;7.90;;
54935;SDS011;40838;50.676;7.838;2023-06-22T11:46:03;8.07;;;7.25;;
54935;SDS011;40838;50.676;7.838;2023-06-22T11:48:30;8.93;;;7.05;;
54935;SDS011;40838;50.676;7.838;2023-06-22T11:50:58;8.38;;;6.80;;
54935;SDS011;40838;50.676;7.838;2023-06-22T11:53:25;9.55;;;7.38;;
54935;SDS011;40838;50.676;7.838;2023-06-22T11:55:53;7.72;;;7.00;;
54935;SDS011;40838;50.676;7.838;2023-06-22T11:58:20;10.93;;;7.60;;
54935;SDS011;40838;50.676;7.838;2023-06-22T12:00:48;11.32;;;6.75;;
54935;SDS011;40838;50.676;7.838;2023-06-22T12:03:17;8.13;;;6.68;;
54935;SDS011;40838;50.676;7.838;2023-06-22T12:05:44;10.02;;;7.00;;
54935;SDS011;40838;50.676;7.838;2023-06-22T12:08:10;9.95;;;7.13;;
54935;SDS011;40838;50.676;7.838;2023-06-22T12:10:38;9.43;;;7.15;;
54935;SDS011;40838;50.676;7.838;2023-06-22T12:13:05;7.95;;;7.15;;
54935;SDS011;40838;50.676;7.838;2023-06-22T12:15:32;7.93;;;7.03;;
54935;SDS011;40838;50.676;7.838;2023-06-22T12:18:00;7.95;;;6.80;;
54935;SDS011;40838;50.676;7.838;2023-06-22T12:20:28;8.73;;;7.13;;
54935;SDS011;40838;50.676;7.838;2023-06-22T12:22:54;7.47;;;6.68;;
54935;SDS011;40838;50.676;7.838;2023-06-22T12:25:23;7.72;;;6.32;;
54935;SDS011;40838;50.676;7.838;2023-06-22T12:27:50;7.95;;;6.20;;
54935;SDS011;40838;50.676;7.838;2023-06-22T12:30:17;9.80;;;6.57;;
54935;SDS011;40838;50.676;7.838;2023-06-22T12:32:44;11.07;;;7.70;;
54935;SDS011;40838;50.676;7.838;2023-06-22T12:35:12;9.07;;;7.22;;
54935;SDS011;40838;50.676;7.838;2023-06-22T12:37:40;10.05;;;7.40;;
54935;SDS011;40838;50.676;7.838;2023-06-22T12:40:07;9.35;;;7.30;;
54935;SDS011;40838;50.676;7.838;2023-06-22T12:42:35;10.07;;;7.85;;
54935;SDS011;40838;50.676;7.838;2023-06-22T12:45:02;11.07;;;7.88;;
54935;SDS011;40838;50.676;7.838;2023-06-22T12:47:29;8.57;;;7.72;;
54935;SDS011;40838;50.676;7.838;2023-06-22T12:49:58;9.77;;;7.20;;
54935;SDS011;40838;50.676;7.838;2023-06-22T12:52:27;8.20;;;7.00;;
54935;SDS011;40838;50.676;7.838;2023-06-22T12:54:56;10.65;;;7.88;;
54935;SDS011;40838;50.676;7.838;2023-06-22T12:57:23;11.50;;;7.70;;
54935;SDS011;40838;50.676;7.838;2023-06-22T12:59:50;9.63;;;7.22;;
54935;SDS011;40838;50.676;7.838;2023-06-22T13:02:17;7.95;;;6.90;;
54935;SDS011;40838;50.676;7.838;2023-06-22T13:04:44;11.85;;;7.75;;
54935;SDS011;40838;50.676;7.838;2023-06-22T13:07:11;8.02;;;7.22;;
54935;SDS011;40838;50.676;7.838;2023-06-22T13:09:43;11.80;;;7.68;;
54935;SDS011;40838;50.676;7.838;2023-06-22T13:12:12;10.40;;;7.75;;
54935;SDS011;40838;50.676;7.838;2023-06-22T13:14:38;11.38;;;7.18;;
54935;SDS011;40838;50.676;7.838;2023-06-22T13:17:05;7.25;;;6.38;;
54935;SDS011;40838;50.676;7.838;2023-06-22T13:19:35;7.28;;;5.80;;
54935;SDS011;40838;50.676;7.838;2023-06-22T13:22:04;10.00;;;6.70;;
54935;SDS011;40838;50.676;7.838;2023-06-22T13:24:32;10.88;;;6.25;;
54935;SDS011;40838;50.676;7.838;2023-06-22T13:27:00;8.88;;;6.78;;
54935;SDS011;40838;50.676;7.838;2023-06-22T13:29:27;8.13;;;7.43;;
54935;SDS011;40838;50.676;7.838;2023-06-22T13:31:54;7.43;;;6.72;;
54935;SDS011;40838;50.676;7.838;2023-06-22T13:34:22;8.68;;;7.57;;
54935;SDS011;40838;50.676;7.838;2023-06-22T13:36:49;9.40;;;6.97;;
54935;SDS011;40838;50.676;7.838;2023-06-22T13:39:16;10.13;;;6.97;;
54935;SDS011;40838;50.676;7.838;2023-06-22T13:41:43;8.80;;;7.80;;
54935;SDS011;40838;50.676;7.838;2023-06-22T13:44:11;8.45;;;7.65;;
54935;SDS011;40838;50.676;7.838;2023-06-22T13:46:38;9.80;;;7.70;;
54935;SDS011;40838;50.676;7.838;2023-06-22T13:49:07;11.07;;;7.28;;
54935;SDS011;40838;50.676;7.838;2023-06-22T13:51:34;11.00;;;7.63;;
54935;SDS011;40838;50.676;7.838;2023-06-22T13:54:02;9.23;;;8.18;;
54935;SDS011;40838;50.676;7.838;2023-06-22T13:56:29;11.02;;;7.60;;
54935;SDS011;40838;50.676;7.838;2023-06-22T13:58:56;9.38;;;7.53;;
54935;SDS011;40838;50.676;7.838;2023-06-22T14:01:25;8.90;;;7.40;;
54935;SDS011;40838;50.676;7.838;2023-06-22T14:03:52;9.98;;;7.60;;
54935;SDS011;40838;50.676;7.838;2023-06-22T14:06:18;9.25;;;7.63;;
54935;SDS011;40838;50.676;7.838;2023-06-22T14:08:45;10.98;;;7.68;;
54935;SDS011;40838;50.676;7.838;2023-06-22T14:11:12;13.32;;;7.45;;
54935;SDS011;40838;50.676;7.838;2023-06-22T14:13:39;9.20;;;8.25;;
54935;SDS011;40838;50.676;7.838;2023-06-22T14:16:07;11.02;;;7.35;;
54935;SDS011;40838;50.676;7.838;2023-06-22T14:18:35;11.40;;;7.60;;
54935;SDS011;40838;50.676;7.838;2023-06-22T14:21:02;9.60;;;7.68;;
54935;SDS011;40838;50.676;7.838;2023-06-22T14:23:30;8.43;;;7.60;;
54935;SDS011;40838;50.676;7.838;2023-06-22T14:25:57;8.15;;;7.07;;
54935;SDS011;40838;50.676;7.838;2023-06-22T14:28:24;7.88;;;7.07;;
54935;SDS011;40838;50.676;7.838;2023-06-22T14:30:53;9.73;;;6.97;;
54935;SDS011;40838;50.676;7.838;2023-06-22T14:33:22;8.80;;;7.32;;
54935;SDS011;40838;50.676;7.838;2023-06-22T14:35:53;7.55;;;6.85;;
54935;SDS011;40838;50.676;7.838;2023-06-22T14:38:19;11.93;;;7.15;;
54935;SDS011;40838;50.676;7.838;2023-06-22T14:40:46;9.85;;;7.13;;